Kirovohrad, Ukraine
Current Conditions -  °F | °C
As of 5:00 PM on Friday 31 Oct 2014 (Local Time) from UKDR Reporting Station
Clear Clear  
Wind Chill: 52°   Ceiling: Unl
Heat Index: 52°   Visibility: 6mi
Dew Point: 37°   Wind: 4mph
Humidity: 58%   Direction: 40°NE
Pressure: 30.09"   Gusts: NA
Location:  48.5°N, 32.26°E
Report Text: UKDR 311400Z 04002MPS CAVOK 11/03 Q1019 3609//70 NOSIG
Loading
Personal Weather Stations






























Interactive Weather Map
Tropical Storm Tracking
New forecast layout! Learn more

10-Day Weather Forecast

Advertisements
Track Severe Weather on mobile